createdAt,value
2022-10-11T00:02:17.180Z,13.09
2022-10-11T00:04:44.611Z,13.06
2022-10-11T00:07:12.100Z,13.04
2022-10-11T00:09:39.467Z,13.14
2022-10-11T00:12:06.953Z,13.32
2022-10-11T00:14:34.385Z,13.42
2022-10-11T00:17:01.729Z,13.41
2022-10-11T00:19:29.082Z,13.48
2022-10-11T00:21:56.395Z,13.41
2022-10-11T00:24:23.845Z,13.20
2022-10-11T00:26:51.150Z,13.16
2022-10-11T00:29:18.554Z,12.95
2022-10-11T00:31:45.996Z,12.81
2022-10-11T00:34:15.521Z,12.73
2022-10-11T00:36:42.887Z,12.92
2022-10-11T00:39:10.267Z,12.94
2022-10-11T00:41:37.601Z,12.90
2022-10-11T00:44:22.233Z,12.95
2022-10-11T00:47:06.766Z,12.83
2022-10-11T00:49:35.155Z,12.66
2022-10-11T00:52:06.417Z,12.68
2022-10-11T00:54:36.081Z,12.55
2022-10-11T00:57:08.591Z,12.53
2022-10-11T00:59:39.334Z,12.38
2022-10-11T01:02:07.621Z,12.39
2022-10-11T01:04:35.189Z,12.17
2022-10-11T01:07:02.908Z,12.18
2022-10-11T01:09:30.619Z,12.08
2022-10-11T01:12:01.274Z,12.05
2022-10-11T01:14:59.507Z,11.95
2022-10-11T01:17:54.113Z,12.19
2022-10-11T01:20:27.591Z,12.50
2022-10-11T01:23:15.862Z,12.58
2022-10-11T01:26:20.502Z,12.60
2022-10-11T01:29:05.594Z,12.64
2022-10-11T01:32:18.270Z,12.56
2022-10-11T01:34:50.591Z,12.54
2022-10-11T01:37:46.787Z,12.54
2022-10-11T01:40:17.710Z,12.66
2022-10-11T01:42:45.259Z,12.62
2022-10-11T01:45:15.866Z,12.66
2022-10-11T01:47:45.676Z,12.85
2022-10-11T01:50:34.196Z,12.70
2022-10-11T01:53:13.123Z,12.51
2022-10-11T01:55:50.648Z,12.29
2022-10-11T01:58:29.365Z,12.02
2022-10-11T02:01:10.478Z,11.93
2022-10-11T02:04:06.681Z,11.85
2022-10-11T02:06:48.698Z,11.88
2022-10-11T02:09:22.993Z,11.93
2022-10-11T02:11:50.366Z,11.98
2022-10-11T02:14:21.796Z,12.08
2022-10-11T02:17:03.885Z,12.29
2022-10-11T02:19:36.047Z,12.35
2022-10-11T02:22:08.894Z,12.41
2022-10-11T02:24:40.438Z,12.38
2022-10-11T02:27:08.609Z,12.32
2022-10-11T02:29:40.158Z,12.31
2022-10-11T02:32:08.210Z,12.40
2022-10-11T02:34:45.361Z,12.59
2022-10-11T02:37:45.337Z,12.65
2022-10-11T02:40:29.461Z,12.46
2022-10-11T02:43:23.962Z,12.07
2022-10-11T02:45:54.314Z,11.97
2022-10-11T02:48:23.444Z,11.95
2022-10-11T02:50:50.909Z,11.98
2022-10-11T02:53:18.633Z,12.09
2022-10-11T02:55:46.366Z,12.10
2022-10-11T02:58:13.712Z,12.15
2022-10-11T03:00:41.027Z,12.33
2022-10-11T03:03:08.383Z,12.45
2022-10-11T03:05:40.596Z,12.53
2022-10-11T03:08:08.735Z,12.40
2022-10-11T03:10:36.236Z,12.30
2022-10-11T03:13:03.581Z,12.36
2022-10-11T03:15:30.957Z,12.34
2022-10-11T03:17:58.330Z,12.41
2022-10-11T03:20:25.871Z,12.43
2022-10-11T03:22:53.547Z,12.39
2022-10-11T03:25:20.953Z,12.35
2022-10-11T03:27:48.281Z,12.42
2022-10-11T03:30:18.335Z,12.55
2022-10-11T03:32:46.085Z,12.66
2022-10-11T03:35:13.601Z,12.64
2022-10-11T03:37:40.908Z,12.77
2022-10-11T03:40:09.100Z,12.89
2022-10-11T03:42:37.253Z,12.95
2022-10-11T03:45:08.124Z,13.03
2022-10-11T03:47:39.470Z,13.11
2022-10-11T03:50:08.245Z,13.10
2022-10-11T03:52:35.956Z,13.06
2022-10-11T03:55:03.667Z,13.06
2022-10-11T03:57:31.023Z,13.06
2022-10-11T03:59:58.328Z,13.06
2022-10-11T04:02:25.793Z,13.19
2022-10-11T04:04:53.135Z,13.13
2022-10-11T04:07:20.438Z,13.13
2022-10-11T04:09:47.811Z,13.12
2022-10-11T04:12:15.080Z,13.15
2022-10-11T04:14:42.478Z,13.07
2022-10-11T04:17:09.857Z,13.09
2022-10-11T04:19:37.277Z,13.20
2022-10-11T04:22:05.156Z,13.13
2022-10-11T04:24:32.558Z,13.19
2022-10-11T04:27:00.176Z,13.34
2022-10-11T04:29:32.189Z,13.24
2022-10-11T04:32:00.062Z,13.27
2022-10-11T04:34:27.419Z,13.18
2022-10-11T04:36:54.795Z,13.16
2022-10-11T04:39:22.105Z,13.43
2022-10-11T04:41:49.506Z,13.41
2022-10-11T04:44:16.846Z,13.35
2022-10-11T04:46:44.146Z,13.24
2022-10-11T04:49:11.493Z,13.24
2022-10-11T04:51:38.896Z,13.21
2022-10-11T04:54:06.270Z,13.26
2022-10-11T04:56:33.631Z,13.15
2022-10-11T04:59:00.967Z,13.20
2022-10-11T05:01:28.291Z,13.16
2022-10-11T05:03:55.649Z,13.22
2022-10-11T05:06:22.958Z,13.32
2022-10-11T05:08:50.330Z,13.33
2022-10-11T05:11:18.125Z,13.19
2022-10-11T05:13:46.333Z,13.16
2022-10-11T05:16:14.428Z,13.27
2022-10-11T05:18:42.211Z,13.25
2022-10-11T05:21:19.859Z,12.91
2022-10-11T05:23:48.558Z,12.75
2022-10-11T05:26:16.489Z,12.71
2022-10-11T05:28:44.141Z,12.98
2022-10-11T05:31:11.793Z,13.05
2022-10-11T05:33:39.271Z,13.22
2022-10-11T05:36:07.902Z,13.16
2022-10-11T05:38:36.075Z,13.05
2022-10-11T05:41:04.326Z,13.16
2022-10-11T05:43:32.257Z,13.15
2022-10-11T05:45:59.641Z,13.15
2022-10-11T05:48:28.377Z,13.11
2022-10-11T05:51:06.536Z,13.20
2022-10-11T05:53:34.233Z,13.19
2022-10-11T05:56:01.970Z,13.18
2022-10-11T05:58:29.837Z,13.15
2022-10-11T06:00:57.402Z,13.21
2022-10-11T06:03:24.937Z,13.16
2022-10-11T06:06:03.177Z,13.22
2022-10-11T06:08:31.353Z,13.12
2022-10-11T06:10:58.629Z,13.18
2022-10-11T06:13:25.916Z,13.04
2022-10-11T06:15:53.322Z,13.15
2022-10-11T06:18:20.692Z,13.19
2022-10-11T06:20:48.024Z,13.20
2022-10-11T06:23:15.327Z,13.17
2022-10-11T06:25:42.649Z,13.18
2022-10-11T06:28:10.045Z,13.18
2022-10-11T06:30:39.195Z,13.20
2022-10-11T06:33:06.713Z,13.25
2022-10-11T06:35:34.005Z,13.25
2022-10-11T06:38:01.341Z,13.35
2022-10-11T06:40:29.325Z,13.57
2022-10-11T06:42:56.634Z,13.70
2022-10-11T06:45:23.962Z,13.82
2022-10-11T06:47:51.265Z,13.70
2022-10-11T06:50:30.096Z,13.57
2022-10-11T06:53:07.909Z,13.72
2022-10-11T06:55:35.329Z,13.69
2022-10-11T06:58:02.622Z,13.81
2022-10-11T07:00:29.984Z,13.89
2022-10-11T07:02:57.298Z,13.86
2022-10-11T07:05:24.684Z,13.76
2022-10-11T07:07:52.011Z,13.78
2022-10-11T07:10:19.362Z,13.70
2022-10-11T07:12:46.681Z,13.76
2022-10-11T07:15:13.992Z,13.67
2022-10-11T07:17:42.165Z,13.58
2022-10-11T07:20:10.137Z,13.43
2022-10-11T07:22:37.445Z,13.36
2022-10-11T07:25:05.305Z,13.39
2022-10-11T07:27:32.614Z,13.30
2022-10-11T07:29:59.954Z,13.33
2022-10-11T07:32:27.331Z,13.58
2022-10-11T07:34:55.732Z,13.69
2022-10-11T07:37:23.060Z,13.81
2022-10-11T07:39:50.530Z,13.81
2022-10-11T07:42:17.878Z,13.94
2022-10-11T07:44:45.224Z,14.17
2022-10-11T07:47:12.553Z,14.37
2022-10-11T07:49:39.907Z,14.44
2022-10-11T07:52:07.215Z,14.52
2022-10-11T07:54:34.583Z,14.53
2022-10-11T07:57:01.883Z,14.60
2022-10-11T07:59:49.305Z,14.64
2022-10-11T08:02:17.511Z,14.68
2022-10-11T08:04:44.972Z,14.66
2022-10-11T08:07:12.325Z,14.69
2022-10-11T08:09:39.648Z,14.76
2022-10-11T08:12:07.090Z,14.83
2022-10-11T08:14:34.425Z,14.91
2022-10-11T08:17:02.409Z,14.86
2022-10-11T08:19:29.827Z,14.84
2022-10-11T08:21:57.778Z,14.90
2022-10-11T08:24:25.269Z,14.96
2022-10-11T08:26:53.043Z,14.98
2022-10-11T08:29:20.333Z,15.08
2022-10-11T08:31:47.664Z,15.06
2022-10-11T08:34:15.053Z,15.06
2022-10-11T08:36:42.465Z,15.05
2022-10-11T08:39:09.817Z,15.07
2022-10-11T08:41:53.512Z,15.02
2022-10-11T08:45:08.825Z,14.96
2022-10-11T08:47:41.148Z,14.82
2022-10-11T08:50:14.329Z,14.75
2022-10-11T08:53:00.012Z,14.73
2022-10-11T08:55:50.985Z,14.66
2022-10-11T08:58:22.882Z,14.60
2022-10-11T09:00:53.071Z,14.64
2022-10-11T09:03:23.476Z,14.75
2022-10-11T09:06:11.866Z,14.90
2022-10-11T09:09:05.831Z,15.09
2022-10-11T09:11:33.104Z,15.27
2022-10-11T09:14:08.794Z,15.40
2022-10-11T09:17:02.243Z,15.54
2022-10-11T09:20:12.766Z,15.68
2022-10-11T09:22:51.208Z,15.71
2022-10-11T09:25:35.492Z,15.86
2022-10-11T09:28:03.943Z,15.90
2022-10-11T09:30:32.327Z,16.02
2022-10-11T09:33:08.614Z,16.09
2022-10-11T09:35:44.631Z,16.04
2022-10-11T09:38:30.452Z,16.17
2022-10-11T09:41:11.843Z,16.25
2022-10-11T09:43:39.218Z,16.25
2022-10-11T09:46:36.600Z,16.07
2022-10-11T09:49:07.800Z,15.88
2022-10-11T09:51:35.332Z,15.78
2022-10-11T09:54:05.276Z,15.77
2022-10-11T09:56:34.549Z,15.74
2022-10-11T09:59:37.592Z,15.74
2022-10-11T10:02:07.762Z,15.84
2022-10-11T10:04:35.130Z,15.80
2022-10-11T10:07:13.155Z,15.79
2022-10-11T10:09:40.455Z,16.04
2022-10-11T10:12:26.617Z,16.35
2022-10-11T10:15:07.328Z,16.58
2022-10-11T10:17:35.694Z,16.68
2022-10-11T10:20:05.585Z,16.68
2022-10-11T10:22:35.406Z,16.64
2022-10-11T10:25:07.862Z,16.88
2022-10-11T10:27:35.404Z,17.10
2022-10-11T10:30:08.534Z,17.27
2022-10-11T10:32:54.119Z,17.20
2022-10-11T10:35:27.454Z,17.38
2022-10-11T10:38:26.603Z,17.50
2022-10-11T10:41:04.343Z,17.51
2022-10-11T10:43:36.750Z,17.32
2022-10-11T10:46:16.007Z,17.52
2022-10-11T10:52:48.009Z,18.13
2022-10-11T10:55:35.250Z,18.28
2022-10-11T10:58:40.722Z,18.99
2022-10-11T11:01:22.938Z,19.69
2022-10-11T11:03:59.665Z,20.42
2022-10-11T11:06:44.985Z,20.84
2022-10-11T11:09:25.298Z,22.55
2022-10-11T11:12:01.647Z,22.40
2022-10-11T11:14:28.933Z,21.39
2022-10-11T11:17:12.996Z,20.36
2022-10-11T11:19:50.228Z,20.34
2022-10-11T11:22:42.285Z,22.11
2022-10-11T11:25:36.209Z,23.14
2022-10-11T11:28:09.316Z,22.20
2022-10-11T11:31:14.066Z,20.45
2022-10-11T11:34:05.087Z,19.74
2022-10-11T11:36:43.985Z,19.82
2022-10-11T11:39:48.450Z,19.83
2022-10-11T11:42:34.554Z,19.09
2022-10-11T11:45:13.377Z,18.62
2022-10-11T11:47:43.593Z,18.26
2022-10-11T11:50:22.536Z,17.87
2022-10-11T11:53:13.924Z,17.11
2022-10-11T11:55:49.427Z,16.98
2022-10-11T11:58:28.646Z,17.01
2022-10-11T12:01:20.477Z,16.96
2022-10-11T12:03:51.160Z,16.92
2022-10-11T12:06:28.858Z,16.79
2022-10-11T12:09:01.988Z,16.80
2022-10-11T12:11:36.855Z,16.64
2022-10-11T12:14:17.605Z,16.88
2022-10-11T12:17:08.113Z,17.00
2022-10-11T12:19:37.322Z,16.97
2022-10-11T12:22:26.510Z,17.18
2022-10-11T12:25:22.873Z,17.20
2022-10-11T12:27:52.940Z,17.16
2022-10-11T12:30:48.266Z,16.89
2022-10-11T12:33:17.089Z,16.70
2022-10-11T12:35:56.242Z,16.89
2022-10-11T12:38:28.723Z,16.51
2022-10-11T12:41:18.901Z,16.75
2022-10-11T12:43:49.173Z,16.90
2022-10-11T12:46:31.540Z,17.16
2022-10-11T12:49:31.139Z,16.72
2022-10-11T12:52:00.260Z,16.99
2022-10-11T12:55:04.799Z,16.88
2022-10-11T12:58:09.837Z,17.11
2022-10-11T13:01:03.476Z,17.66
2022-10-11T13:03:42.824Z,17.92
2022-10-11T13:06:25.442Z,18.20
2022-10-11T13:09:00.434Z,18.30
2022-10-11T13:11:34.500Z,18.58
2022-10-11T13:14:08.484Z,18.74
2022-10-11T13:16:57.502Z,18.89
2022-10-11T13:19:25.864Z,19.06
2022-10-11T13:22:00.434Z,18.86
2022-10-11T13:24:34.884Z,18.95
2022-10-11T13:27:03.310Z,18.98
2022-10-11T13:29:37.318Z,19.33
2022-10-11T13:32:16.302Z,19.17
2022-10-11T13:34:47.313Z,18.86
2022-10-11T13:37:20.811Z,18.70
2022-10-11T13:39:51.261Z,18.45
2022-10-11T13:42:20.156Z,18.21
2022-10-11T13:44:47.980Z,18.61
2022-10-11T13:47:17.958Z,18.77
2022-10-11T13:49:47.714Z,18.74
2022-10-11T13:52:20.615Z,18.92
2022-10-11T13:55:03.054Z,18.69
2022-10-11T13:57:45.229Z,18.66
2022-10-11T14:00:15.584Z,18.55
2022-10-11T14:03:05.734Z,18.44
2022-10-11T14:05:36.149Z,18.45
2022-10-11T14:08:07.130Z,18.42
2022-10-11T14:10:34.732Z,18.28
2022-10-11T14:13:07.740Z,18.29
2022-10-11T14:15:38.522Z,18.23
2022-10-11T14:18:26.769Z,18.21
2022-10-11T14:20:54.335Z,18.09
2022-10-11T14:23:21.629Z,17.70
2022-10-11T14:25:49.681Z,17.50
2022-10-11T14:28:17.159Z,17.38
2022-10-11T14:30:44.933Z,17.25
2022-10-11T14:33:12.524Z,17.19
2022-10-11T14:35:43.183Z,17.20
2022-10-11T14:38:11.934Z,17.13
2022-10-11T14:40:39.214Z,17.01
2022-10-11T14:43:06.554Z,16.81
2022-10-11T14:45:33.891Z,16.74
2022-10-11T14:48:01.188Z,16.73
2022-10-11T14:50:30.971Z,16.81
2022-10-11T14:52:58.635Z,16.84
2022-10-11T14:55:26.069Z,16.88
2022-10-11T14:57:53.440Z,16.94
2022-10-11T15:00:23.643Z,16.85
2022-10-11T15:02:52.784Z,16.81
2022-10-11T15:05:21.572Z,16.81
2022-10-11T15:07:49.550Z,16.66
2022-10-11T15:10:22.971Z,16.63
2022-10-11T15:12:51.344Z,16.51
2022-10-11T15:15:21.198Z,16.39
2022-10-11T15:17:50.287Z,16.48
2022-10-11T15:20:33.469Z,16.50
2022-10-11T15:23:01.569Z,16.51
2022-10-11T15:25:29.463Z,16.48
2022-10-11T15:27:57.753Z,16.40
2022-10-11T15:30:44.574Z,16.41
2022-10-11T15:33:11.897Z,16.35
2022-10-11T15:35:39.364Z,16.27
2022-10-11T15:38:06.637Z,16.30
2022-10-11T15:40:35.719Z,16.23
2022-10-11T15:43:03.702Z,16.21
2022-10-11T15:45:31.370Z,16.18
2022-10-11T15:47:59.172Z,16.04
2022-10-11T15:50:36.717Z,15.99
2022-10-11T15:53:06.807Z,16.01
2022-10-11T15:55:36.055Z,16.00
2022-10-11T15:58:03.791Z,16.01
2022-10-11T16:00:31.549Z,16.01
2022-10-11T16:03:00.116Z,16.01
2022-10-11T16:05:29.128Z,15.97
2022-10-11T16:07:56.497Z,15.94
2022-10-11T16:10:23.845Z,15.91
2022-10-11T16:12:51.205Z,15.85
2022-10-11T16:15:18.563Z,15.83
2022-10-11T16:17:46.560Z,15.69
2022-10-11T16:20:14.422Z,15.59
2022-10-11T16:22:42.063Z,15.34
2022-10-11T16:25:09.423Z,15.21
2022-10-11T16:27:36.741Z,15.12
2022-10-11T16:30:04.995Z,15.02
2022-10-11T16:32:35.352Z,14.93
2022-10-11T16:35:02.709Z,14.84
2022-10-11T16:37:32.012Z,14.81
2022-10-11T16:39:59.525Z,14.75
2022-10-11T16:42:27.087Z,14.63
2022-10-11T16:44:54.388Z,14.54
2022-10-11T16:47:21.680Z,14.47
2022-10-11T16:49:48.992Z,14.37
2022-10-11T16:52:16.376Z,14.33
2022-10-11T16:54:44.831Z,14.30
2022-10-11T16:57:13.830Z,14.26
2022-10-11T16:59:41.531Z,14.21
2022-10-11T17:02:29.939Z,13.99
2022-10-11T17:04:59.664Z,13.79
2022-10-11T17:07:27.399Z,13.66
2022-10-11T17:09:55.082Z,13.52
2022-10-11T17:12:23.725Z,13.56
2022-10-11T17:14:51.470Z,13.45
2022-10-11T17:17:19.244Z,13.48
2022-10-11T17:19:47.610Z,13.27
2022-10-11T17:22:17.597Z,13.15
2022-10-11T17:24:45.277Z,13.22
2022-10-11T17:27:12.638Z,13.16
2022-10-11T17:29:40.156Z,13.13
2022-10-11T17:32:07.657Z,13.04
2022-10-11T17:34:35.129Z,13.05
2022-10-11T17:37:02.505Z,12.88
2022-10-11T17:39:29.953Z,12.92
2022-10-11T17:41:57.318Z,13.05
2022-10-11T17:44:24.636Z,13.06
2022-10-11T17:46:52.061Z,13.16
2022-10-11T17:49:19.405Z,13.14
2022-10-11T17:51:46.729Z,13.15
2022-10-11T17:54:14.253Z,12.94
2022-10-11T17:56:42.505Z,12.96
2022-10-11T17:59:16.719Z,12.66
2022-10-11T18:01:44.053Z,12.49
2022-10-11T18:04:16.507Z,12.26
2022-10-11T18:06:45.360Z,12.21
2022-10-11T18:09:14.151Z,12.15
2022-10-11T18:11:41.542Z,12.17
2022-10-11T18:14:10.319Z,12.10
2022-10-11T18:16:38.053Z,12.23
2022-10-11T18:19:07.932Z,12.19
2022-10-11T18:21:37.619Z,12.30
2022-10-11T18:24:15.740Z,12.26
2022-10-11T18:26:44.171Z,12.16
2022-10-11T18:29:12.594Z,12.15
2022-10-11T18:31:40.631Z,12.14
2022-10-11T18:34:10.688Z,12.17
2022-10-11T18:36:38.828Z,12.09
2022-10-11T18:39:09.468Z,12.14
2022-10-11T18:41:38.932Z,12.14
2022-10-11T18:44:08.541Z,12.24
2022-10-11T18:46:36.377Z,12.36
2022-10-11T18:49:04.369Z,12.13
2022-10-11T18:51:36.811Z,11.72
2022-10-11T18:54:05.306Z,11.67
2022-10-11T18:56:34.517Z,11.79
2022-10-11T18:59:02.021Z,11.83
2022-10-11T19:01:35.158Z,12.10
2022-10-11T19:04:04.504Z,12.42
2022-10-11T19:06:40.519Z,12.53
2022-10-11T19:09:10.774Z,12.56
2022-10-11T19:11:38.915Z,12.63
2022-10-11T19:14:11.455Z,12.64
2022-10-11T19:16:42.956Z,12.66
2022-10-11T19:19:11.772Z,12.68
2022-10-11T19:21:39.700Z,12.72
2022-10-11T19:24:07.303Z,12.76
2022-10-11T19:26:37.483Z,12.72
2022-10-11T19:29:10.122Z,12.60
2022-10-11T19:31:41.877Z,12.66
2022-10-11T19:34:10.278Z,12.77
2022-10-11T19:36:37.893Z,12.63
2022-10-11T19:39:06.635Z,12.37
2022-10-11T19:41:34.229Z,12.38
2022-10-11T19:44:01.740Z,12.52
2022-10-11T19:46:50.420Z,12.56
2022-10-11T19:49:20.481Z,12.69
2022-10-11T19:51:47.951Z,12.80
2022-10-11T19:54:15.599Z,12.73
2022-10-11T19:56:43.434Z,12.77
2022-10-11T19:59:12.590Z,12.67
2022-10-11T20:01:40.852Z,12.73
2022-10-11T20:04:18.784Z,12.81
2022-10-11T20:06:55.045Z,12.81
2022-10-11T20:09:30.599Z,12.92
2022-10-11T20:11:58.555Z,12.88
2022-10-11T20:14:26.040Z,12.81
2022-10-11T20:16:53.378Z,12.81
2022-10-11T20:19:25.076Z,12.80
2022-10-11T20:21:55.309Z,12.85
2022-10-11T20:24:22.724Z,12.79
2022-10-11T20:26:50.023Z,12.91
2022-10-11T20:29:17.336Z,12.95
2022-10-11T20:31:44.641Z,12.96
2022-10-11T20:34:13.213Z,12.97
2022-10-11T20:36:40.673Z,12.95
2022-10-11T20:39:08.434Z,13.03
2022-10-11T20:41:39.773Z,13.14
2022-10-11T20:44:08.812Z,13.24
2022-10-11T20:46:38.413Z,13.22
2022-10-11T20:49:08.138Z,13.16
2022-10-11T20:51:38.170Z,13.09
2022-10-11T20:54:05.690Z,13.07
2022-10-11T20:56:33.771Z,13.10
2022-10-11T20:59:01.704Z,13.23
2022-10-11T21:01:35.595Z,13.11
2022-10-11T21:04:03.640Z,13.09
2022-10-11T21:06:32.759Z,13.20
2022-10-11T21:09:00.586Z,13.20
2022-10-11T21:11:33.330Z,13.20
2022-10-11T21:14:03.470Z,13.28
2022-10-11T21:16:31.342Z,13.26
2022-10-11T21:19:00.203Z,13.27
2022-10-11T21:21:29.330Z,13.25
2022-10-11T21:23:57.961Z,13.26
2022-10-11T21:26:25.616Z,13.36
2022-10-11T21:28:53.124Z,13.40
2022-10-11T21:31:23.875Z,13.39
2022-10-11T21:33:51.269Z,13.27
2022-10-11T21:36:23.255Z,13.27
2022-10-11T21:38:50.990Z,13.36
2022-10-11T21:41:20.505Z,13.43
2022-10-11T21:43:48.434Z,13.33
2022-10-11T21:46:18.851Z,13.28
2022-10-11T21:48:46.408Z,13.26
2022-10-11T21:51:16.052Z,13.20
2022-10-11T21:53:43.447Z,13.12
2022-10-11T21:56:10.858Z,13.16
2022-10-11T21:58:38.231Z,13.08
2022-10-11T22:01:05.975Z,13.00
2022-10-11T22:03:33.369Z,13.01
2022-10-11T22:06:03.912Z,13.08
2022-10-11T22:08:31.602Z,13.19
2022-10-11T22:11:00.305Z,13.34
2022-10-11T22:13:29.314Z,13.35
2022-10-11T22:15:56.879Z,13.33
2022-10-11T22:18:24.862Z,13.32
2022-10-11T22:20:52.525Z,13.18
2022-10-11T22:23:19.997Z,13.09
2022-10-11T22:25:47.493Z,12.95
2022-10-11T22:28:14.848Z,12.94
2022-10-11T22:30:42.251Z,12.90
2022-10-11T22:33:09.513Z,12.88
2022-10-11T22:35:37.971Z,12.81
2022-10-11T22:38:06.484Z,12.87
2022-10-11T22:40:33.790Z,12.89
2022-10-11T22:43:01.140Z,13.06
2022-10-11T22:45:28.457Z,13.25
2022-10-11T22:47:55.751Z,13.30
2022-10-11T22:50:23.106Z,13.22
2022-10-11T22:52:50.375Z,13.00
2022-10-11T22:55:20.301Z,13.01
2022-10-11T22:57:47.698Z,13.05
2022-10-11T23:00:15.387Z,12.97
2022-10-11T23:02:42.668Z,12.97
2022-10-11T23:05:09.981Z,12.89
2022-10-11T23:07:37.691Z,13.02
2022-10-11T23:10:05.671Z,12.98
2022-10-11T23:12:33.004Z,12.99
2022-10-11T23:15:00.420Z,12.85
2022-10-11T23:17:27.733Z,12.80
2022-10-11T23:19:55.332Z,12.66
2022-10-11T23:22:22.690Z,12.62
2022-10-11T23:24:49.966Z,12.76
2022-10-11T23:27:17.335Z,12.79
2022-10-11T23:29:44.613Z,12.58
2022-10-11T23:32:12.391Z,12.49
2022-10-11T23:34:39.732Z,12.51
2022-10-11T23:37:07.093Z,12.51
2022-10-11T23:39:34.867Z,12.60
2022-10-11T23:42:02.302Z,12.73
2022-10-11T23:44:29.688Z,12.69
2022-10-11T23:46:57.020Z,12.64
2022-10-11T23:49:24.327Z,12.72
2022-10-11T23:51:51.650Z,12.70
2022-10-11T23:54:18.988Z,12.91
2022-10-11T23:56:46.298Z,12.93
2022-10-11T23:59:13.612Z,12.94
